Time;durP1;ratioP1;P1;durP2;ratioP2;P2;SDS_P1;SDS_P2;PMS_P1;PMS_P2;Temp;Humidity;BMP_temperature;BMP_pressure;BME280_temperature;BME280_humidity;BME280_pressure;Samples;Min_cycle;Max_cycle;Signal;HPM_P1;HPM_P2
2022/07/15 00:01:20;;;;;;;10.52;3.90;;;;;;;32.02;46.85;101421.47;4198512;28;20114;-59
2022/07/15 00:03:21;;;;;;;13.43;3.70;;;;;;;32.08;46.80;101437.91;4198647;28;20533;-59
2022/07/15 00:05:22;;;;;;;12.85;4.47;;;;;;;32.08;46.83;101432.25;4198632;28;20041;-59
2022/07/15 00:07:24;;;;;;;8.02;3.63;;;;;;;32.08;46.86;101440.75;4198349;28;20475;-60
2022/07/15 00:11:50;;;;;;;7.97;3.47;;;;;;;32.02;46.76;101442.09;4199703;28;20082;-59
2022/07/15 00:13:51;;;;;;;8.32;4.13;;;;;;;32.04;46.90;101448.28;4180372;28;20480;-59
2022/07/15 00:15:52;;;;;;;10.95;3.80;;;;;;;32.07;47.05;101449.56;4198574;28;20090;-59
2022/07/15 00:18:03;;;;;;;11.70;3.90;;;;;;;31.68;46.81;101408.41;4198924;28;20032;-59
2022/07/15 00:20:05;;;;;;;11.00;4.05;;;;;;;32.06;47.13;101445.91;4198306;28;20040;-59
2022/07/15 00:22:06;;;;;;;10.13;3.40;;;;;;;32.08;46.96;101454.06;4198537;28;20113;-59
2022/07/15 00:24:08;;;;;;;8.73;3.67;;;;;;;32.07;46.92;101456.06;4198552;28;20418;-60
2022/07/15 00:26:12;;;;;;;10.95;4.07;;;;;;;32.07;46.90;101452.41;4198607;28;20098;-59
2022/07/15 00:28:13;;;;;;;8.43;3.50;;;;;;;32.05;46.86;101461.25;4198464;28;20097;-60
2022/07/15 00:30:14;;;;;;;10.05;3.75;;;;;;;32.06;46.75;101462.06;4198222;28;20040;-60
2022/07/15 00:32:18;;;;;;;13.10;4.03;;;;;;;32.01;47.03;101462.28;4198533;28;20036;-59
2022/07/15 00:34:20;;;;;;;9.57;3.38;;;;;;;32.07;47.01;101472.22;4197538;28;20482;-59
2022/07/15 00:36:24;;;;;;;6.13;3.47;;;;;;;32.05;46.94;101471.75;4198340;28;20040;-60
2022/07/15 00:38:26;;;;;;;8.85;3.53;;;;;;;32.07;47.06;101477.88;4198154;28;20041;-60
2022/07/15 00:40:27;;;;;;;10.90;4.45;;;;;;;32.04;46.89;101475.75;4198317;28;20533;-59
2022/07/15 00:42:43;;;;;;;8.02;3.80;;;;;;;32.07;46.90;101480.69;4198356;28;20109;-60
2022/07/15 00:44:45;;;;;;;7.53;3.10;;;;;;;32.06;46.85;101476.22;4198403;28;20091;-60
2022/07/15 00:46:47;;;;;;;6.53;3.65;;;;;;;32.06;46.81;101481.88;4197879;28;20090;-59
2022/07/15 00:48:49;;;;;;;9.05;3.65;;;;;;;32.06;46.68;101484.72;4197860;28;20036;-60
2022/07/15 00:50:56;;;;;;;6.70;3.40;;;;;;;32.04;46.77;101487.06;4198142;28;20033;-59
2022/07/15 00:53:22;;;;;;;8.02;3.75;;;;;;;32.04;46.61;101484.25;4197964;28;20380;-60
2022/07/15 00:55:24;;;;;;;;;;;;;;;32.02;46.42;101490.22;4198550;28;20040;-60
2022/07/15 00:57:26;;;;;;;9.68;4.13;;;;;;;32.09;46.53;101495.34;4197692;28;20421;-60
2022/07/15 00:59:31;;;;;;;9.13;3.97;;;;;;;32.09;46.63;101496.19;4197725;28;20541;-60
2022/07/15 01:01:35;;;;;;;9.52;4.15;;;;;;;32.05;46.38;101491.56;4198020;28;20113;-59
2022/07/15 01:03:37;;;;;;;6.38;3.63;;;;;;;32.06;46.48;101498.88;4197878;28;20428;-60
2022/07/15 01:05:39;;;;;;;6.95;3.47;;;;;;;32.06;46.66;101507.38;4198099;28;20021;-60
2022/07/15 01:07:43;;;;;;;7.97;3.85;;;;;;;32.02;46.49;101512.06;4197954;28;20434;-60
2022/07/15 01:09:44;;;;;;;9.40;4.15;;;;;;;32.02;46.48;101512.06;4197784;28;20094;-59
2022/07/15 01:11:47;;;;;;;6.93;3.70;;;;;;;32.04;46.56;101515.38;4198013;28;20058;-60
2022/07/15 01:13:48;;;;;;;5.28;3.00;;;;;;;32.03;46.37;101516.56;4197818;28;20032;-60
2022/07/15 01:15:58;;;;;;;5.93;3.13;;;;;;;31.99;46.56;101507.09;4197526;28;20553;-60
2022/07/15 01:18:03;;;;;;;9.70;4.40;;;;;;;32.03;46.29;101519.41;4197778;28;20090;-59
2022/07/15 01:20:06;;;;;;;6.22;3.85;;;;;;;32.02;46.64;101529.03;4196227;28;20070;-59
2022/07/15 01:22:07;;;;;;;6.57;3.88;;;;;;;32.02;46.62;101532.69;4197592;28;20094;-59
2022/07/15 01:24:12;;;;;;;9.18;3.67;;;;;;;32.02;46.58;101534.69;4197660;28;20181;-59
2022/07/15 01:26:14;;;;;;;;;;;;;;;32.01;46.54;101547.19;4197683;28;20395;-60
2022/07/15 01:28:15;;;;;;;6.97;3.63;;;;;;;32.05;46.47;101549.00;4197692;28;19958;-61
2022/07/15 01:30:19;;;;;;;9.18;3.60;;;;;;;31.96;46.38;101536.91;4197442;28;20044;-59
2022/07/15 01:32:23;;;;;;;;;;;;;;;32.03;46.51;101556.19;4198364;28;20036;-60
2022/07/15 01:34:24;;;;;;;6.55;3.22;;;;;;;32.07;46.39;101559.97;4197579;28;20425;-59
2022/07/15 01:36:26;;;;;;;7.30;3.88;;;;;;;32.06;46.56;101558.31;4197550;28;20048;-59
2022/07/15 01:38:28;;;;;;;5.88;3.50;;;;;;;32.05;46.46;101562.31;4197054;28;20045;-59
2022/07/15 01:40:30;;;;;;;5.55;3.65;;;;;;;31.98;46.51;101556.38;4197513;28;20040;-60
2022/07/15 01:42:32;;;;;;;5.63;3.15;;;;;;;32.03;46.49;101564.69;4197526;28;20036;-59
2022/07/15 01:44:33;;;;;;;5.57;3.55;;;;;;;32.02;46.44;101565.84;4197390;28;20110;-59
2022/07/15 01:46:34;;;;;;;7.90;3.63;;;;;;;32.01;46.45;101572.69;4197559;28;20546;-60
2022/07/15 01:51:00;;;;;;;7.32;4.00;;;;;;;31.96;46.52;101570.03;4197914;28;20094;-59
2022/07/15 01:53:01;;;;;;;5.25;3.75;;;;;;;32.00;46.65;101576.69;4197085;28;20373;-59
2022/07/15 01:55:04;;;;;;;5.40;3.85;;;;;;;32.00;46.16;101576.69;4197429;28;20394;-59
2022/07/15 01:57:06;;;;;;;5.45;4.30;;;;;;;31.99;46.30;101580.69;4197568;28;20052;-60
2022/07/15 01:59:08;;;;;;;5.32;3.95;;;;;;;31.99;45.84;101587.19;4197154;28;20402;-59
2022/07/15 02:01:09;;;;;;;5.43;3.60;;;;;;;31.99;46.23;101589.19;4197472;28;20036;-59
2022/07/15 02:03:10;;;;;;;6.68;3.72;;;;;;;31.98;46.44;101591.19;4197508;28;20476;-59
2022/07/15 02:05:14;;;;;;;6.10;4.00;;;;;;;31.99;46.42;101586.34;4197445;28;20102;-59
2022/07/15 02:07:16;;;;;;;6.15;4.07;;;;;;;31.98;46.26;101596.84;4197424;28;20449;-59
2022/07/15 02:09:20;;;;;;;8.43;3.72;;;;;;;31.92;46.29;101591.72;4197137;28;20472;-59
2022/07/15 02:11:21;;;;;;;6.43;3.72;;;;;;;31.97;46.15;101600.00;4197523;28;20020;-59
2022/07/15 02:13:22;;;;;;;6.10;3.85;;;;;;;31.98;46.14;101607.31;4197140;28;20460;-59
2022/07/15 02:15:24;;;;;;;6.28;4.28;;;;;;;31.98;46.25;101618.63;4197059;28;20098;-59
2022/07/15 02:17:25;;;;;;;6.20;4.28;;;;;;;31.97;46.14;101611.31;4197180;28;20098;-59
2022/07/15 02:19:26;;;;;;;5.75;3.92;;;;;;;31.97;46.48;101622.66;4196889;28;20044;-59
2022/07/15 02:21:28;;;;;;;8.73;3.55;;;;;;;31.91;46.35;101618.38;4196894;28;20066;-59
2022/07/15 02:23:29;;;;;;;5.55;3.95;;;;;;;31.96;46.25;101627.50;4197143;28;20036;-60
2022/07/15 02:25:33;;;;;;;4.68;3.75;;;;;;;31.95;46.11;101625.00;4197217;28;20094;-59
2022/07/15 02:27:35;;;;;;;7.22;3.72;;;;;;;31.88;46.06;101612.19;4197265;28;20040;-60
2022/07/15 02:29:36;;;;;;;5.60;4.03;;;;;;;31.96;46.37;101621.00;4196871;28;20037;-60
2022/07/15 02:31:40;;;;;;;5.22;3.70;;;;;;;31.96;46.47;101626.66;4197335;28;20456;-62
2022/07/15 02:33:42;;;;;;;6.15;3.70;;;;;;;31.96;46.47;101637.97;4197130;28;20070;-60
2022/07/15 02:35:46;;;;;;;3.70;3.40;;;;;;;31.92;46.47;101622.84;4197120;28;20087;-59
2022/07/15 02:37:47;;;;;;;5.20;3.60;;;;;;;31.94;46.51;101632.66;4197061;28;20048;-60
2022/07/15 02:39:49;;;;;;;4.47;3.38;;;;;;;31.96;46.33;101626.66;4198794;28;20033;-59
2022/07/15 02:41:50;;;;;;;4.35;3.58;;;;;;;31.92;46.27;101631.34;4199615;28;20041;-59
2022/07/15 02:43:51;;;;;;;4.38;3.95;;;;;;;31.86;46.06;101620.22;4198790;28;20103;-59
2022/07/15 02:45:53;;;;;;;3.88;3.47;;;;;;;31.90;46.33;101623.19;4199842;28;20032;-59
2022/07/15 02:47:55;;;;;;;8.32;3.42;;;;;;;31.94;46.08;101635.50;4200062;28;20056;-59
2022/07/15 02:49:56;;;;;;;4.53;3.22;;;;;;;31.91;46.28;101629.69;4199692;28;20090;-59
2022/07/15 02:51:58;;;;;;;4.93;3.75;;;;;;;31.95;46.31;101636.31;4200061;28;20090;-59
2022/07/15 02:53:59;;;;;;;5.05;3.60;;;;;;;31.85;46.04;101621.38;4199682;28;20044;-59
2022/07/15 02:56:01;;;;;;;5.93;3.60;;;;;;;31.93;46.25;101635.81;4198496;28;20078;-59
2022/07/15 02:58:03;;;;;;;4.65;3.55;;;;;;;31.92;46.22;101635.00;4199797;28;20125;-59
2022/07/15 03:00:07;;;;;;;6.68;3.53;;;;;;;31.93;46.08;101638.66;4199558;28;20045;-59
2022/07/15 03:02:09;;;;;;;3.53;3.15;;;;;;;31.93;46.21;101639.47;4199812;28;20377;-59
2022/07/15 03:04:12;;;;;;;3.85;2.85;;;;;;;31.93;46.21;101644.31;4199528;28;20037;-59
2022/07/15 03:06:14;;;;;;;3.72;3.17;;;;;;;31.94;46.02;101643.16;4199822;28;20037;-59
2022/07/15 03:08:16;;;;;;;3.80;3.40;;;;;;;31.90;46.05;101639.34;4199746;28;20040;-59
2022/07/15 03:10:22;;;;;;;5.20;3.08;;;;;;;31.88;46.13;101640.50;4199561;28;20037;-59
2022/07/15 03:12:24;;;;;;;4.07;3.50;;;;;;;31.92;46.01;101642.66;4199757;28;20106;-59
2022/07/15 03:14:25;;;;;;;3.72;3.42;;;;;;;31.92;45.93;101649.16;4199745;28;20102;-59
2022/07/15 03:16:27;;;;;;;4.32;3.33;;;;;;;31.91;45.97;101649.50;4199307;28;20098;-58
2022/07/15 03:18:28;;;;;;;3.65;3.13;;;;;;;31.91;45.80;101658.81;4199302;28;20102;-59
2022/07/15 03:20:30;;;;;;;4.53;3.28;;;;;;;31.91;45.53;101658.00;4199287;28;20090;-59
2022/07/15 03:22:34;;;;;;;4.00;3.38;;;;;;;31.91;45.86;101663.66;4199570;28;20059;-59
2022/07/15 03:24:38;;;;;;;3.85;3.08;;;;;;;31.81;45.73;101651.50;4199474;28;20385;-59
2022/07/15 03:26:40;;;;;;;4.38;3.33;;;;;;;31.90;45.82;101667.66;4199623;28;20037;-59
2022/07/15 03:28:41;;;;;;;6.43;3.33;;;;;;;31.90;45.64;101676.16;4199194;28;20090;-59
2022/07/15 03:30:42;;;;;;;3.47;3.13;;;;;;;31.91;45.93;101669.31;4199488;28;20032;-59
2022/07/15 03:32:46;;;;;;;3.80;3.15;;;;;;;31.90;45.71;101678.97;4199011;28;20484;-59
2022/07/15 03:34:51;;;;;;;3.38;2.83;;;;;;;31.81;46.07;101668.47;4199485;28;20484;-59
2022/07/15 03:36:53;;;;;;;7.47;3.10;;;;;;;31.89;45.74;101683.81;4199358;28;20040;-59
2022/07/15 03:38:55;;;;;;;4.57;3.28;;;;;;;31.83;45.64;101674.66;4199169;28;20024;-59
2022/07/15 03:40:59;;;;;;;5.88;3.38;;;;;;;31.84;46.00;101682.00;4199304;28;20054;-59
2022/07/15 03:43:00;;;;;;;3.53;3.15;;;;;;;31.86;46.17;101682.47;4199306;28;20032;-59
2022/07/15 03:45:05;;;;;;;5.88;2.92;;;;;;;31.88;45.76;101691.44;4198946;28;20037;-59
2022/07/15 03:47:06;;;;;;;5.43;3.50;;;;;;;31.88;45.68;101688.63;4198851;28;20430;-59
2022/07/15 03:49:07;;;;;;;3.33;3.03;;;;;;;31.88;45.71;101688.63;4198978;28;20146;-59
2022/07/15 03:51:09;;;;;;;3.72;2.97;;;;;;;31.88;45.76;101685.78;4198798;28;20414;-59
2022/07/15 03:53:10;;;;;;;4.68;3.40;;;;;;;31.88;45.89;101690.63;4198971;28;20040;-59
2022/07/15 03:55:11;;;;;;;4.35;3.28;;;;;;;31.85;45.98;101694.97;4199114;28;20040;-59
2022/07/15 03:57:13;;;;;;;4.40;3.17;;;;;;;31.87;45.89;101695.44;4198546;28;20098;-60
2022/07/15 03:59:15;;;;;;;4.82;3.58;;;;;;;31.87;45.96;101697.47;4198602;28;20468;-59
2022/07/15 04:01:20;;;;;;;3.78;3.17;;;;;;;31.82;45.81;101689.97;4198531;28;20044;-59
2022/07/15 04:03:21;;;;;;;4.45;3.15;;;;;;;31.86;45.77;101702.28;4198987;28;20045;-59
2022/07/15 04:05:23;;;;;;;5.65;3.53;;;;;;;31.78;45.85;101699.44;4198541;28;20032;-59
2022/07/15 04:07:27;;;;;;;4.07;3.30;;;;;;;31.85;45.97;101709.13;4198854;28;20036;-60
2022/07/15 04:09:28;;;;;;;3.97;3.35;;;;;;;31.86;45.96;101713.63;4198644;28;20098;-59
2022/07/15 04:11:30;;;;;;;3.33;3.03;;;;;;;31.84;45.78;101707.47;4198760;28;20548;-60
2022/07/15 04:13:34;;;;;;;3.42;3.13;;;;;;;31.86;45.99;101712.78;4198355;28;20040;-60
2022/07/15 04:15:35;;;;;;;3.80;3.13;;;;;;;31.85;45.94;101717.63;4198419;28;20435;-59
2022/07/15 04:17:37;;;;;;;3.63;2.90;;;;;;;31.85;45.72;101716.78;4198121;28;20101;-59
2022/07/15 04:19:38;;;;;;;4.63;3.22;;;;;;;31.84;45.95;101715.09;4198220;28;20036;-60
2022/07/15 04:21:39;;;;;;;4.20;3.03;;;;;;;31.84;45.91;101713.13;4198770;28;20102;-60
2022/07/15 04:23:41;;;;;;;5.32;3.33;;;;;;;31.75;45.90;101706.63;4197292;28;20103;-59
2022/07/15 04:25:45;;;;;;;4.10;3.00;;;;;;;31.84;45.71;101715.09;4198524;28;20090;-60
2022/07/15 04:27:50;;;;;;;3.28;3.05;;;;;;;31.80;45.71;101705.63;4198625;28;20040;-59
2022/07/15 04:29:54;;;;;;;4.22;3.20;;;;;;;31.83;45.91;101708.63;4197687;28;20036;-60
2022/07/15 04:31:56;;;;;;;4.00;3.10;;;;;;;31.76;45.59;101691.31;4198147;28;20032;-60
2022/07/15 04:33:57;;;;;;;3.67;3.28;;;;;;;31.83;45.74;101708.63;4198462;28;20102;-60
2022/07/15 04:35:59;;;;;;;3.72;3.17;;;;;;;31.84;45.65;101704.63;4198406;28;20038;-59
2022/07/15 04:38:03;;;;;;;3.75;3.20;;;;;;;31.81;45.76;101705.28;4197862;28;20090;-60
2022/07/15 04:40:07;;;;;;;3.33;3.03;;;;;;;31.83;45.63;101707.78;4197986;28;20546;-60
2022/07/15 04:42:11;;;;;;;3.47;3.13;;;;;;;31.83;45.57;101710.63;4198406;28;20037;-60
2022/07/15 04:44:13;;;;;;;4.85;3.38;;;;;;;31.83;45.75;101719.09;4198358;28;20090;-60
2022/07/15 04:46:14;;;;;;;3.38;3.08;;;;;;;31.82;45.72;101709.78;4198267;28;20032;-60
2022/07/15 04:50:51;;;;;;;3.63;3.30;;;;;;;31.81;45.69;101710.94;4198754;28;20146;-60
2022/07/15 04:52:52;;;;;;;3.42;3.13;;;;;;;31.81;45.48;101730.75;4198016;28;20373;-60
2022/07/15 04:54:54;;;;;;;4.18;3.78;;;;;;;31.72;45.58;101709.31;4198243;28;20074;-60
2022/07/15 04:56:55;;;;;;;3.40;3.10;;;;;;;31.78;45.42;101734.25;4198058;28;20075;-60
2022/07/15 04:58:57;;;;;;;3.92;3.50;;;;;;;31.79;45.44;101735.91;4197773;28;20094;-59
2022/07/15 05:00:58;;;;;;;4.68;3.78;;;;;;;31.79;45.44;101735.06;4197843;28;20044;-59
2022/07/15 05:03:04;;;;;;;4.35;3.22;;;;;;;31.78;45.16;101739.91;4197631;28;20078;-60
2022/07/15 05:05:08;;;;;;;3.50;3.17;;;;;;;31.77;45.45;101743.91;4198065;28;20037;-60
2022/07/15 05:07:10;;;;;;;4.22;3.90;;;;;;;31.78;45.44;101739.06;4198082;28;20094;-60
2022/07/15 05:09:11;;;;;;;5.00;3.47;;;;;;;31.77;45.31;101732.59;4197665;28;20438;-59
2022/07/15 05:11:13;;;;;;;4.10;3.45;;;;;;;31.77;45.44;101734.59;4197874;28;20033;-59
2022/07/15 05:13:14;;;;;;;4.30;3.47;;;;;;;31.78;45.31;101739.06;4197612;28;20523;-60
2022/07/15 05:15:15;;;;;;;3.88;3.22;;;;;;;31.78;45.40;101739.91;4197916;28;20036;-60
2022/07/15 05:17:20;;;;;;;3.40;3.08;;;;;;;31.71;45.31;101731.13;4197539;28;20369;-59
2022/07/15 05:19:21;;;;;;;3.58;3.28;;;;;;;31.77;45.35;101741.06;4197630;28;20070;-59
2022/07/15 05:21:22;;;;;;;3.85;3.45;;;;;;;31.77;45.41;101743.06;4197692;28;20082;-61
2022/07/15 05:23:26;;;;;;;3.75;3.42;;;;;;;31.77;45.54;101734.59;4197497;28;20105;-60
2022/07/15 05:25:27;;;;;;;4.05;3.65;;;;;;;31.76;45.25;101739.41;4197768;28;20088;-60
2022/07/15 05:27:29;;;;;;;4.85;3.90;;;;;;;31.75;45.11;101734.94;4197837;28;20113;-60
2022/07/15 05:29:30;;;;;;;5.38;3.58;;;;;;;31.75;45.19;101731.25;4197409;28;20094;-59
2022/07/15 05:31:34;;;;;;;3.72;3.42;;;;;;;31.54;45.13;101700.03;4197762;28;20044;-60
2022/07/15 05:33:35;;;;;;;4.57;3.83;;;;;;;31.69;45.30;101730.59;4197676;28;20538;-59
2022/07/15 05:35:37;;;;;;;3.50;3.20;;;;;;;31.76;45.25;101736.59;4197803;28;20098;-59
2022/07/15 05:37:39;;;;;;;3.95;3.55;;;;;;;31.75;44.90;101734.94;4197618;28;20048;-59
2022/07/15 05:39:53;;;;;;;4.20;3.80;;;;;;;31.75;45.11;101736.91;4197428;28;20106;-60
2022/07/15 05:42:02;;;;;;;3.50;3.20;;;;;;;31.74;45.03;101732.41;4197738;28;20040;-60
2022/07/15 05:44:04;;;;;;;4.13;3.72;;;;;;;31.75;44.99;101739.72;4197360;28;20040;-59
2022/07/15 05:46:06;;;;;;;4.00;3.70;;;;;;;31.69;45.05;101730.59;4197401;28;20037;-60
2022/07/15 05:48:07;;;;;;;4.18;3.78;;;;;;;31.73;45.05;101737.25;4197550;28;20430;-60
2022/07/15 05:50:11;;;;;;;4.20;3.83;;;;;;;31.73;45.10;101734.41;4196584;28;20040;-59
2022/07/15 05:52:13;;;;;;;4.35;3.95;;;;;;;31.72;45.14;101738.44;4197787;28;20032;-59
2022/07/15 05:54:14;;;;;;;4.10;3.75;;;;;;;31.72;44.79;101741.25;4197370;28;20479;-60
2022/07/15 05:56:16;;;;;;;4.15;3.75;;;;;;;31.73;44.72;101745.75;4198088;28;20102;-60
2022/07/15 05:58:17;;;;;;;4.13;3.72;;;;;;;31.73;44.90;101740.09;4197457;28;20097;-60
2022/07/15 06:00:19;;;;;;;3.60;3.20;;;;;;;31.72;45.02;101737.59;4197351;28;20113;-60
2022/07/15 06:02:23;;;;;;;4.57;3.80;;;;;;;31.70;45.25;101737.91;4197484;28;20041;-60
2022/07/15 06:04:27;;;;;;;4.10;3.78;;;;;;;31.70;45.32;101737.91;4197118;28;20098;-60
2022/07/15 06:06:37;;;;;;;4.55;3.67;;;;;;;31.71;45.32;101735.94;4197472;28;20044;-60
2022/07/15 06:08:38;;;;;;;3.35;3.05;;;;;;;31.72;45.34;101740.44;4197295;28;20942;-59
2022/07/15 06:10:44;;;;;;;3.53;3.22;;;;;;;31.71;45.46;101739.59;4197466;28;20040;-59
2022/07/15 06:12:46;;;;;;;3.65;3.35;;;;;;;31.71;45.27;101739.59;4197961;28;20090;-59
2022/07/15 06:14:47;;;;;;;4.18;3.78;;;;;;;31.71;45.35;101735.94;4200729;28;20036;-60
2022/07/15 06:16:51;;;;;;;3.95;3.55;;;;;;;31.71;45.42;101744.44;4200701;28;20503;-60
2022/07/15 06:18:55;;;;;;;4.55;3.30;;;;;;;31.69;45.30;101741.91;4200263;28;20113;-59
2022/07/15 06:20:56;;;;;;;3.92;3.20;;;;;;;31.70;45.38;101743.56;4200632;28;20029;-60
2022/07/15 06:22:58;;;;;;;3.53;3.22;;;;;;;31.70;45.11;101749.22;4200609;28;20109;-60
2022/07/15 06:24:59;;;;;;;3.38;3.05;;;;;;;31.69;45.20;101753.25;4200603;28;20075;-59
2022/07/15 06:27:00;;;;;;;3.40;3.10;;;;;;;31.69;45.17;101747.56;4200560;28;20041;-59
2022/07/15 06:29:05;;;;;;;3.88;3.50;;;;;;;31.68;45.44;101743.09;4199752;28;20090;-59
2022/07/15 06:31:06;;;;;;;4.57;3.38;;;;;;;31.68;45.41;101747.91;4200475;28;20037;-60
2022/07/15 06:33:08;;;;;;;4.47;3.85;;;;;;;31.68;45.23;101745.91;4199990;28;20040;-59
2022/07/15 06:35:10;;;;;;;4.28;3.67;;;;;;;31.68;45.13;101740.25;4200517;28;20028;-60
2022/07/15 06:37:12;;;;;;;3.60;3.30;;;;;;;31.68;45.33;101745.09;4200364;28;20442;-58
2022/07/15 06:39:13;;;;;;;3.63;3.30;;;;;;;31.60;45.29;101738.28;4199625;28;20110;-59
2022/07/15 06:41:15;;;;;;;3.90;3.47;;;;;;;31.66;45.10;101742.59;4200285;28;20032;-59
2022/07/15 06:43:16;;;;;;;4.20;3.80;;;;;;;31.64;45.12;101742.09;4200320;28;20036;-59
2022/07/15 06:45:17;;;;;;;3.80;3.20;;;;;;;31.66;45.24;101742.59;4199900;28;20117;-59
2022/07/15 06:47:22;;;;;;;3.88;3.47;;;;;;;31.65;45.20;101746.59;4200006;28;20117;-57
2022/07/15 06:49:23;;;;;;;3.88;3.50;;;;;;;31.61;45.26;101739.94;4200279;28;20028;-60
2022/07/15 06:51:24;;;;;;;3.90;3.55;;;;;;;31.65;45.16;101752.25;4200102;28;20434;-58
2022/07/15 06:53:26;;;;;;;3.67;3.30;;;;;;;31.65;45.25;101757.91;4199574;28;20045;-60
2022/07/15 06:55:28;;;;;;;4.40;4.00;;;;;;;31.64;44.93;101764.72;4199818;28;20036;-61
2022/07/15 06:57:29;;;;;;;4.22;3.83;;;;;;;31.60;45.21;101760.91;4200035;28;20070;-59
2022/07/15 06:59:31;;;;;;;4.63;3.70;;;;;;;31.63;45.45;101766.72;4199637;28;20094;-59
2022/07/15 07:01:34;;;;;;;3.63;3.33;;;;;;;31.62;45.10;101765.06;4199983;28;20102;-60
2022/07/15 07:03:38;;;;;;;4.30;3.90;;;;;;;31.63;45.36;101772.38;4200043;28;20438;-59
2022/07/15 07:05:43;;;;;;;4.18;3.63;;;;;;;31.63;45.02;101774.41;4200030;28;20071;-59
2022/07/15 07:07:44;;;;;;;4.22;3.83;;;;;;;31.63;45.09;101774.41;4199886;28;20569;-60
2022/07/15 07:09:45;;;;;;;4.03;3.63;;;;;;;31.63;45.06;101765.91;4199534;28;20036;-58
2022/07/15 07:11:47;;;;;;;4.30;3.90;;;;;;;31.62;45.27;101764.25;4199828;28;20094;-59
2022/07/15 07:13:49;;;;;;;3.38;3.08;;;;;;;31.62;45.12;101769.91;4199527;28;20093;-58
2022/07/15 07:15:50;;;;;;;3.38;3.08;;;;;;;31.61;44.99;101762.56;4199791;28;20082;-58
2022/07/15 07:17:55;;;;;;;3.85;3.55;;;;;;;31.61;44.83;101763.41;4199739;28;20100;-60
2022/07/15 07:19:59;;;;;;;3.83;3.42;;;;;;;31.59;45.09;101753.59;4199366;28;20101;-60
2022/07/15 07:22:04;;;;;;;4.10;3.70;;;;;;;31.61;45.10;101759.72;4199769;28;20369;-59
2022/07/15 07:24:07;;;;;;;4.50;4.10;;;;;;;31.57;45.17;101755.94;4199507;28;20438;-59
2022/07/15 07:26:09;;;;;;;3.63;3.33;;;;;;;31.60;45.31;101763.72;4199303;28;20071;-58
2022/07/15 07:28:13;;;;;;;4.72;3.72;;;;;;;31.60;45.03;101760.91;4199608;28;20114;-58
2022/07/15 07:30:15;;;;;;;5.13;3.33;;;;;;;31.60;45.05;101763.72;4199325;28;20044;-58
2022/07/15 07:32:19;;;;;;;4.13;3.72;;;;;;;31.52;44.72;101744.78;4199613;28;20277;-58
2022/07/15 07:34:20;;;;;;;4.22;3.60;;;;;;;31.52;44.91;101748.47;4199604;28;20071;-58
2022/07/15 07:36:23;;;;;;;3.88;3.58;;;;;;;31.59;45.07;101759.25;4199368;28;20033;-59
2022/07/15 07:38:24;;;;;;;3.97;3.58;;;;;;;31.60;44.95;101763.72;4199239;28;20056;-59
2022/07/15 07:40:26;;;;;;;3.75;3.30;;;;;;;31.57;45.10;101758.78;4199342;28;20049;-59
2022/07/15 07:42:27;;;;;;;3.90;3.53;;;;;;;31.58;44.74;101763.25;4199514;28;20460;-59
2022/07/15 07:44:28;;;;;;;3.75;3.40;;;;;;;31.58;45.04;101763.25;4198944;28;20044;-60
2022/07/15 07:46:30;;;;;;;4.25;3.85;;;;;;;31.57;45.19;101755.94;4199327;28;20377;-60
2022/07/15 07:48:32;;;;;;;3.97;3.58;;;;;;;31.57;45.01;101755.94;4199098;28;20093;-60
2022/07/15 07:50:33;;;;;;;4.25;3.85;;;;;;;31.56;45.27;101757.91;4199339;28;20082;-58
2022/07/15 07:52:41;;;;;;;4.45;3.60;;;;;;;31.53;45.17;101755.78;4199426;28;20525;-58
2022/07/15 07:54:43;;;;;;;3.88;3.47;;;;;;;31.55;45.04;101753.44;4198991;28;20037;-59
2022/07/15 07:56:45;;;;;;;4.03;3.63;;;;;;;31.56;45.00;101755.06;4196570;28;20044;-58
2022/07/15 07:58:46;;;;;;;4.03;3.72;;;;;;;31.54;45.14;101746.13;4198809;28;20466;-59
2022/07/15 08:00:52;;;;;;;4.35;3.88;;;;;;;31.42;45.25;101731.81;4198714;28;20040;-58
2022/07/15 08:02:55;;;;;;;4.05;3.65;;;;;;;31.50;45.30;101741.47;4199029;28;20537;-58
2022/07/15 08:04:56;;;;;;;4.15;3.70;;;;;;;31.53;44.95;101749.28;4199187;28;20044;-60
2022/07/15 08:07:00;;;;;;;4.13;3.72;;;;;;;31.53;44.96;101752.13;4198543;28;20094;-60
2022/07/15 08:09:01;;;;;;;4.20;3.80;;;;;;;31.53;45.00;101754.94;4198601;28;20101;-58
2022/07/15 08:11:03;;;;;;;4.32;3.92;;;;;;;31.52;45.13;101747.59;4198564;28;20122;-60
2022/07/15 08:13:04;;;;;;;4.82;4.00;;;;;;;31.52;45.05;101754.13;4198994;28;20418;-58
2022/07/15 08:15:10;;;;;;;3.67;3.38;;;;;;;31.51;44.96;101754.44;4198734;28;20427;-59
2022/07/15 08:17:11;;;;;;;4.28;3.88;;;;;;;31.51;45.27;101751.59;4198508;28;20036;-57
2022/07/15 08:19:16;;;;;;;4.40;4.00;;;;;;;31.43;44.94;101752.44;4197928;28;20101;-57
2022/07/15 08:21:20;;;;;;;4.25;3.92;;;;;;;31.49;44.92;101766.09;4198841;28;20044;-58
2022/07/15 08:23:22;;;;;;;3.90;3.50;;;;;;;31.49;44.90;101766.09;4199177;28;20032;-58
2022/07/15 08:25:30;;;;;;;4.00;3.70;;;;;;;31.49;45.07;101765.25;4198988;28;20102;-59
2022/07/15 08:27:34;;;;;;;5.32;3.72;;;;;;;31.50;45.15;101767.75;4198571;28;20476;-60
2022/07/15 08:29:35;;;;;;;3.97;3.65;;;;;;;31.50;44.96;101766.91;4197152;28;20041;-59
2022/07/15 08:31:37;;;;;;;4.43;4.03;;;;;;;31.49;45.01;101765.25;4199143;28;20040;-60
2022/07/15 08:33:38;;;;;;;4.00;3.60;;;;;;;31.49;44.86;101776.56;4199350;28;20139;-59
2022/07/15 08:35:41;;;;;;;3.83;3.53;;;;;;;31.42;44.97;101767.75;4199015;28;20044;-59
2022/07/15 08:37:42;;;;;;;3.80;3.50;;;;;;;31.48;44.96;101775.75;4199328;28;20051;-60
2022/07/15 08:39:46;;;;;;;3.75;3.45;;;;;;;31.47;45.04;101767.56;4198392;28;20100;-59
2022/07/15 08:41:48;;;;;;;3.83;3.20;;;;;;;31.41;45.17;101761.25;4198700;28;20427;-60
2022/07/15 08:43:51;;;;;;;4.15;3.75;;;;;;;31.46;45.35;101771.56;4198996;28;20028;-59
2022/07/15 08:45:52;;;;;;;4.03;3.65;;;;;;;31.35;45.27;101760.59;4199049;28;20442;-59
2022/07/15 08:47:59;;;;;;;4.45;4.05;;;;;;;31.45;45.04;101775.56;4198626;28;20041;-59
2022/07/15 08:50:03;;;;;;;4.28;3.88;;;;;;;31.45;45.21;101764.25;4198440;28;20041;-60
2022/07/15 08:52:05;;;;;;;5.50;4.00;;;;;;;31.44;45.20;101786.06;4198838;28;20044;-59
2022/07/15 08:54:10;;;;;;;4.05;3.70;;;;;;;31.45;45.12;101786.88;4198641;28;20094;-59
2022/07/15 08:56:11;;;;;;;5.05;3.58;;;;;;;31.44;45.23;101782.41;4198051;28;20044;-59
2022/07/15 08:58:15;;;;;;;3.60;3.30;;;;;;;31.43;45.05;101777.88;4198164;28;20115;-59
2022/07/15 09:00:28;;;;;;;3.75;3.45;;;;;;;31.44;45.17;101782.41;4197302;28;20045;-59
2022/07/15 09:02:30;;;;;;;4.00;3.60;;;;;;;31.44;45.02;101788.88;4198056;28;20476;-59
2022/07/15 09:04:32;;;;;;;4.40;4.00;;;;;;;31.43;45.16;101780.72;4195481;28;20040;-60
2022/07/15 09:06:44;;;;;;;4.25;3.85;;;;;;;31.40;45.17;101789.88;4197708;28;20048;-59
2022/07/15 09:08:45;;;;;;;4.20;3.80;;;;;;;31.42;45.33;101782.72;4197756;28;20457;-59
2022/07/15 09:10:53;;;;;;;4.03;3.63;;;;;;;31.42;45.03;101787.53;4197533;28;20037;-60
2022/07/15 09:12:58;;;;;;;4.38;3.97;;;;;;;31.42;45.09;101784.72;4198091;28;20094;-60
2022/07/15 09:14:59;;;;;;;4.35;3.95;;;;;;;31.42;44.92;101793.19;4198013;28;20159;-60
2022/07/15 09:17:12;;;;;;;4.20;3.78;;;;;;;31.41;45.02;101791.53;4197927;28;20036;-59
2022/07/15 09:19:13;;;;;;;4.13;3.75;;;;;;;31.41;44.89;101780.22;4197463;28;20106;-60
2022/07/15 09:21:19;;;;;;;4.05;3.65;;;;;;;31.41;44.87;101777.41;4197565;28;20040;-60
2022/07/15 09:23:29;;;;;;;6.45;4.57;;;;;;;31.40;45.01;101779.41;4197874;28;20036;-60
2022/07/15 09:25:36;;;;;;;3.72;3.42;;;;;;;31.40;45.13;101784.22;4197748;28;20037;-60
2022/07/15 09:27:42;;;;;;;4.40;4.00;;;;;;;31.39;45.11;101786.22;4197826;28;20044;-59
2022/07/15 09:36:01;;;;;;;3.75;3.45;;;;;;;31.37;45.17;101791.38;4180020;28;20468;-60
2022/07/15 09:37:26;;;;;;;4.50;4.10;;;;;;;31.40;44.90;101789.88;4179345;28;20071;-60
2022/07/15 09:39:28;;;;;;;3.78;3.42;;;;;;;31.38;45.00;101788.22;4183444;28;20106;-59
2022/07/15 09:41:40;;;;;;;3.60;3.30;;;;;;;31.37;45.00;101786.53;4197650;28;20071;-59
2022/07/15 09:43:49;;;;;;;4.65;4.10;;;;;;;31.37;45.03;101783.72;4197632;28;20472;-60
2022/07/15 09:46:01;;;;;;;4.20;3.80;;;;;;;31.36;44.96;101784.88;4197615;28;20102;-60